KBFI/BFI METAR and TAF weather

Enter ICAO airport designator
Station Type Date Time Source
KBFI METAR 2019/06/18 17:07 UTC NOAA

KBFI 181707Z 06004KT 10SM FEW008 BKN014 OVC026 16/11 A3023 RMK AO2 T01560111


Station Type Date Time Source
KBFI Decoded METAR 2019/06/18 17:07 UTC NOAA

SEATTLE BOEING FIELD, WA, United States (KBFI) 47-33N 122-19W 4M
Jun 18, 2019 - 01:07 PM EDT / 2019.06.18 1707 UTC
Wind: from the ENE (060 degrees) at 5 MPH (4 KT):0
Visibility: 10 mile(s):0
Sky conditions: overcast
Temperature: 60.1 F (15.6 C)
Dew Point: 52.0 F (11.1 C)
Relative Humidity: 74%
Pressure (altimeter): 30.23 in. Hg (1023 hPa)
ob: KBFI 181707Z 06004KT 10SM FEW008 BKN014 OVC026 16/11 A3023 RMK AO2 T01560111
cycle: 17

Station Type Date Time Source
KBFI TAF 2019/06/18 12:42 UTC NOAA

TAF KBFI 181139Z 1812/1912 20006KT P6SM OVC014
FM181400 VRB03KT P6SM OVC008
TEMPO 1814/1818 3SM -DZ
FM181800 VRB03KT P6SM OVC011
FM182000 VRB03KT P6SM SCT011 BKN025
FM182200 20006KT P6SM SCT025 BKN040 BKN060
FM190900 18010KT P6SM OVC025

Example: see airport list